| time (UTC) | temp F | wind direction | speed MPH | gust MPH | rain 1hr in | rain 24hr in | rain mn in | humidity % | barometer mb |
| 20260903023333 | 67 | 48 | 2.0 | 5.0 | 0.00 | 0.00 | 0.00 | 84 | 1018.0 |
| 20260903021848 | 67 | 56 | 2.0 | 4.0 | 0.00 | 0.00 | 0.00 | 85 | 1018.1 |
| 20260903020343 | 67 | 42 | 0.0 | 1.0 | 0.00 | 0.00 | 0.00 | 85 | 1018.1 |
| 20260903014840 | 67 | 38 | 2.0 | 4.0 | 0.00 | 0.00 | 0.00 | 85 | 1018.1 |
| 20260903013335 | 68 | 205 | 0.0 | 0.0 | 0.00 | 0.00 | 0.00 | 85 | 1018.1 |
| 20260903011848 | 68 | 205 | 0.0 | 0.0 | 0.00 | 0.00 | 0.00 | 84 | 1018.0 |
| 20260903010342 | 68 | 205 | 0.0 | 0.0 | 0.00 | 0.00 | 0.00 | 83 | 1018.0 |
| 20260903004835 | 68 | 204 | 0.0 | 0.0 | 0.00 | 0.00 | 0.00 | 82 | 1018.1 |
| 20260903003333 | 69 | 204 | 0.0 | 4.0 | 0.00 | 0.00 | 0.00 | 80 | 1018.0 |
| 20260903001829 | 71 | 47 | 0.0 | 4.0 | 0.00 | 0.00 | 0.00 | 78 | 1018.0 |
| 20260903000343 | 71 | 47 | 1.0 | 4.0 | 0.00 | 0.00 | 0.00 | 77 | 1018.0 |
| 20260902234837 | 71 | 44 | 2.0 | 6.0 | 0.00 | 0.00 | 0.00 | 77 | 1017.8 |
| 20260902233329 | 72 | 59 | 2.0 | 6.0 | 0.00 | 0.00 | 0.00 | 77 | 1017.7 |
| 20260902231835 | 71 | 42 | 2.0 | 6.0 | 0.00 | 0.00 | 0.00 | 78 | 1017.7 |
| 20260902230348 | 71 | 37 | 2.0 | 5.0 | 0.00 | 0.00 | 0.00 | 78 | 1017.7 |
| 20260902224845 | 71 | 42 | 5.0 | 7.0 | 0.00 | 0.00 | 0.00 | 79 | 1017.6 |
| 20260902223338 | 71 | 30 | 4.0 | 6.0 | 0.00 | 0.00 | 0.00 | 79 | 1017.6 |
| 20260902221830 | 71 | 42 | 3.0 | 5.0 | 0.00 | 0.00 | 0.00 | 80 | 1017.7 |
| 20260902220348 | 71 | 5 | 0.0 | 3.0 | 0.00 | 0.00 | 0.00 | 80 | 1017.6 |
| 20260902214827 | 71 | 5 | 1.0 | 3.0 | 0.00 | 0.00 | 0.00 | 79 | 1017.5 |
| 20260902213330 | 72 | 360 | 2.0 | 3.0 | 0.00 | 0.00 | 0.00 | 79 | 1017.6 |
| 20260902211846 | 72 | 355 | 2.0 | 3.0 | 0.00 | 0.00 | 0.00 | 77 | 1017.5 |
| 20260902210342 | 73 | 71 | 1.0 | 4.0 | 0.00 | 0.00 | 0.00 | 75 | 1017.3 |
| 20260902204832 | 73 | 80 | 4.0 | 6.0 | 0.00 | 0.00 | 0.00 | 76 | 1017.3 |
| 20260902203330 | 73 | 42 | 2.0 | 3.0 | 0.00 | 0.00 | 0.00 | 77 | 1017.2 |
| 20260902201848 | 73 | 28 | 2.0 | 3.0 | 0.00 | 0.00 | 0.00 | 78 | 1017.2 |
| 20260902200344 | 74 | 13 | 0.0 | 3.0 | 0.00 | 0.00 | 0.00 | 77 | 1017.1 |
| 20260902194841 | 74 | 347 | 0.0 | 0.0 | 0.00 | 0.00 | 0.00 | 76 | 1017.0 |
| 20260902193331 | 75 | 347 | 0.0 | 0.0 | 0.00 | 0.00 | 0.00 | 75 | 1017.0 |
| 20260902191844 | 76 | 347 | 0.0 | 0.0 | 0.00 | 0.00 | 0.00 | 72 | 1016.9 |
| 20260902190342 | 77 | 347 | 0.0 | 0.0 | 0.00 | 0.00 | 0.00 | 70 | 1016.7 |
| 20260902184838 | 78 | 347 | 0.0 | 3.0 | 0.00 | 0.00 | 0.00 | 69 | 1016.6 |
| 20260902183337 | 79 | 346 | 2.0 | 3.0 | 0.00 | 0.00 | 0.00 | 66 | 1016.5 |
| 20260902181832 | 79 | 346 | 1.0 | 4.0 | 0.00 | 0.00 | 0.00 | 64 | 1016.4 |
| 20260902180331 | 80 | 348 | 2.0 | 4.0 | 0.00 | 0.00 | 0.00 | 63 | 1016.3 |
| 20260902174848 | 82 | 355 | 2.0 | 3.0 | 0.00 | 0.00 | 0.00 | 59 | 1016.1 |
| 20260902173331 | 82 | 355 | 2.0 | 4.0 | 0.00 | 0.00 | 0.00 | 58 | 1016.1 |
| 20260902171848 | 83 | 330 | 2.0 | 5.0 | 0.00 | 0.00 | 0.00 | 57 | 1016.0 |
| 20260902170338 | 84 | 315 | 2.0 | 4.0 | 0.00 | 0.00 | 0.00 | 54 | 1016.0 |
| 20260902164835 | 85 | 292 | 1.0 | 3.0 | 0.00 | 0.00 | 0.00 | 52 | 1016.1 |
| 20260902163340 | 86 | 265 | 2.0 | 5.0 | 0.00 | 0.00 | 0.00 | 50 | 1016.0 |
| 20260902161836 | 87 | 271 | 2.0 | 5.0 | 0.00 | 0.00 | 0.00 | 50 | 1016.1 |
| 20260902160331 | 86 | 313 | 3.0 | 5.0 | 0.00 | 0.00 | 0.00 | 51 | 1016.1 |
| 20260902154835 | 86 | 277 | 3.0 | 5.0 | 0.00 | 0.00 | 0.00 | 51 | 1016.2 |
| 20260902153327 | 86 | 310 | 3.0 | 5.0 | 0.00 | 0.00 | 0.00 | 52 | 1016.4 |
| 20260902151845 | 86 | 340 | 4.0 | 6.0 | 0.00 | 0.00 | 0.00 | 48 | 1016.4 |
| 20260902150341 | 86 | 284 | 1.0 | 5.0 | 0.00 | 0.00 | 0.00 | 48 | 1016.6 |
| 20260902144830 | 86 | 246 | 3.0 | 5.0 | 0.00 | 0.00 | 0.00 | 53 | 1016.7 |
| 20260902143345 | 86 | 289 | 0.0 | 5.0 | 0.00 | 0.00 | 0.00 | 49 | 1016.8 |
| 20260902141836 | 86 | 277 | 4.0 | 6.0 | 0.00 | 0.00 | 0.00 | 53 | 1016.8 |
| 20260902140349 | 86 | 200 | 3.0 | 7.0 | 0.00 | 0.00 | 0.00 | 54 | 1016.9 |
| 20260902134847 | 86 | 223 | 1.0 | 5.0 | 0.00 | 0.00 | 0.00 | 54 | 1017.1 |
| 20260902133338 | 85 | 225 | 2.0 | 6.0 | 0.00 | 0.00 | 0.00 | 58 | 1017.0 |
| 20260902131830 | 85 | 336 | 3.0 | 6.0 | 0.00 | 0.00 | 0.00 | 56 | 1017.3 |
| 20260902130347 | 85 | 217 | 4.0 | 6.0 | 0.00 | 0.00 | 0.00 | 54 | 1017.5 |
| 20260902124843 | 84 | 239 | 1.0 | 7.0 | 0.00 | 0.00 | 0.00 | 59 | 1017.6 |
| 20260902123342 | 84 | 259 | 4.0 | 7.0 | 0.00 | 0.00 | 0.00 | 58 | 1017.8 |
| 20260902121830 | 84 | 300 | 1.0 | 6.0 | 0.00 | 0.00 | 0.00 | 60 | 1018.0 |
| 20260902120334 | 84 | 348 | 4.0 | 7.0 | 0.00 | 0.00 | 0.00 | 60 | 1018.1 |
| 20260902114849 | 83 | 161 | 2.0 | 7.0 | 0.00 | 0.00 | 0.00 | 60 | 1018.3 |
| 20260902113346 | 83 | 273 | 2.0 | 4.0 | 0.00 | 0.00 | 0.00 | 64 | 1018.4 |
| 20260902111845 | 82 | 203 | 2.0 | 7.0 | 0.00 | 0.00 | 0.00 | 63 | 1018.5 |
| 20260902110340 | 82 | 259 | 0.0 | 6.0 | 0.00 | 0.00 | 0.00 | 62 | 1018.7 |
| 20260902104831 | 81 | 290 | 1.0 | 6.0 | 0.00 | 0.00 | 0.00 | 63 | 1018.8 |
| 20260902103328 | 81 | 249 | 4.0 | 7.0 | 0.00 | 0.00 | 0.00 | 62 | 1018.9 |
| 20260902101836 | 81 | 204 | 4.0 | 6.0 | 0.00 | 0.00 | 0.00 | 66 | 1019.1 |
| 20260902100349 | 80 | 128 | 3.0 | 6.0 | 0.00 | 0.00 | 0.00 | 64 | 1019.1 |
| 20260902094841 | 80 | 58 | 2.0 | 4.0 | 0.00 | 0.00 | 0.00 | 66 | 1019.2 |
| 20260902093340 | 79 | 210 | 2.0 | 3.0 | 0.00 | 0.00 | 0.00 | 66 | 1019.4 |
| 20260902091839 | 79 | 144 | 3.0 | 7.0 | 0.00 | 0.00 | 0.00 | 67 | 1019.3 |
| 20260902090331 | 79 | 79 | 1.0 | 5.0 | 0.00 | 0.00 | 0.00 | 68 | 1019.3 |
| 20260902084846 | 78 | 136 | 5.0 | 9.0 | 0.00 | 0.00 | 0.00 | 68 | 1019.3 |
| 20260902083340 | 77 | 138 | 3.0 | 8.0 | 0.00 | 0.00 | 0.00 | 69 | 1019.2 |
| 20260902081840 | 77 | 142 | 6.0 | 9.0 | 0.00 | 0.00 | 0.00 | 70 | 1019.3 |
| 20260902080335 | 77 | 116 | 3.0 | 6.0 | 0.00 | 0.00 | 0.00 | 72 | 1019.2 |
| 20260902074829 | 77 | 109 | 4.0 | 6.0 | 0.00 | 0.00 | 0.00 | 73 | 1019.0 |
| 20260902073348 | 76 | 144 | 3.0 | 5.0 | 0.00 | 0.00 | 0.00 | 74 | 1019.2 |
| 20260902071844 | 76 | 157 | 1.0 | 3.0 | 0.00 | 0.00 | 0.00 | 76 | 1019.1 |
| 20260902070343 | 75 | 108 | 1.0 | 6.0 | 0.00 | 0.00 | 0.00 | 77 | 1018.9 |
| 20260902064841 | 74 | 134 | 3.0 | 5.0 | 0.00 | 0.00 | 0.00 | 78 | 1018.8 |
| 20260902063336 | 73 | 96 | 4.0 | 6.0 | 0.00 | 0.00 | 0.00 | 80 | 1018.7 |
| 20260902061831 | 72 | 96 | 3.0 | 4.0 | 0.00 | 0.00 | 0.00 | 81 | 1018.7 |
| 20260902060345 | 71 | 88 | 4.0 | 6.0 | 0.00 | 0.00 | 0.00 | 84 | 1018.7 |
| 20260902054842 | 70 | 74 | 1.0 | 4.0 | 0.00 | 0.00 | 0.00 | 85 | 1018.4 |
| 20260902053332 | 69 | 63 | 1.0 | 3.0 | 0.00 | 0.00 | 0.00 | 86 | 1018.5 |
| 20260902051847 | 69 | 71 | 0.0 | 1.0 | 0.00 | 0.00 | 0.00 | 86 | 1018.3 |
| 20260902050343 | 69 | 69 | 0.0 | 0.0 | 0.00 | 0.00 | 0.00 | 86 | 1018.3 |
| 20260902044847 | 69 | 69 | 0.0 | 3.0 | 0.00 | 0.00 | 0.00 | 86 | 1018.3 |
| 20260902043338 | 69 | 69 | 2.0 | 4.0 | 0.00 | 0.00 | 0.00 | 85 | 1018.3 |
| 20260902041832 | 69 | 71 | 2.0 | 3.0 | 0.00 | 0.00 | 0.00 | 85 | 1018.0 |
| 20260902040349 | 69 | 65 | 0.0 | 3.0 | 0.00 | 0.00 | 0.00 | 86 | 1017.9 |
| 20260902034841 | 69 | 65 | 2.0 | 3.0 | 0.00 | 0.00 | 0.00 | 85 | 1017.9 |
| 20260902033331 | 69 | 66 | 2.0 | 4.0 | 0.00 | 0.00 | 0.00 | 85 | 1018.1 |
| 20260902031843 | 69 | 59 | 1.0 | 4.0 | 0.00 | 0.00 | 0.00 | 85 | 1018.1 |
| 20260902030337 | 69 | 61 | 0.0 | 1.0 | 0.00 | 0.00 | 0.00 | 84 | 1018.2 |
| 20260902024836 | 70 | 61 | 2.0 | 4.0 | 0.00 | 0.00 | 0.00 | 84 | 1018.1 |